createdAt,value
2022-09-25T00:01:19.344Z,101545.78
2022-09-25T00:03:47.427Z,101546.81
2022-09-25T00:06:17.681Z,101548.19
2022-09-25T00:08:46.585Z,101548.53
2022-09-25T00:11:16.363Z,101549.88
2022-09-25T00:13:45.833Z,101543.03
2022-09-25T00:16:16.203Z,101546.28
2022-09-25T00:19:03.146Z,101546.59
2022-09-25T00:21:32.036Z,101548.47
2022-09-25T00:24:01.056Z,101549.53
2022-09-25T00:26:30.609Z,101549.88
2022-09-25T00:29:01.082Z,101550.03
2022-09-25T00:31:30.507Z,101551.75
2022-09-25T00:34:02.460Z,101554.28
2022-09-25T00:36:30.855Z,101545.25
2022-09-25T00:38:58.751Z,101550.56
2022-09-25T00:41:30.104Z,101546.28
2022-09-25T00:43:59.984Z,101553.97
2022-09-25T00:46:31.566Z,101553.13
2022-09-25T00:49:05.291Z,101549.00
2022-09-25T00:51:38.884Z,101556.00
2022-09-25T00:54:07.556Z,101545.63
2022-09-25T00:56:41.098Z,101550.69
2022-09-25T00:59:13.070Z,101545.38
2022-09-25T01:01:40.991Z,101546.91
2022-09-25T01:04:13.394Z,101552.03
2022-09-25T01:06:41.934Z,101547.75
2022-09-25T01:09:09.912Z,101545.72
2022-09-25T01:11:37.749Z,101548.63
2022-09-25T01:14:08.585Z,101552.72
2022-09-25T01:16:42.433Z,101557.19
2022-09-25T01:19:27.277Z,101555.31
2022-09-25T01:22:06.174Z,101557.72
2022-09-25T01:25:03.058Z,101544.56
2022-09-25T01:28:07.881Z,101548.63
2022-09-25T01:30:41.638Z,101550.66
2022-09-25T01:33:16.114Z,101550.94
2022-09-25T01:35:49.806Z,101549.63
2022-09-25T01:38:31.221Z,101556.81
2022-09-25T01:41:03.616Z,101554.56
2022-09-25T01:43:37.767Z,101548.41
2022-09-25T01:46:12.997Z,101549.81
2022-09-25T01:48:44.325Z,101548.06
2022-09-25T01:51:20.197Z,101554.25
2022-09-25T01:53:52.596Z,101546.34
2022-09-25T01:56:26.251Z,101535.94
2022-09-25T01:59:00.780Z,101545.00
2022-09-25T02:01:35.159Z,101540.38
2022-09-25T02:04:09.234Z,101536.94
2022-09-25T02:06:39.834Z,101530.47
2022-09-25T02:09:12.144Z,101532.78
2022-09-25T02:11:44.654Z,101525.28
2022-09-25T02:14:17.373Z,101527.72
2022-09-25T02:16:52.250Z,101526.19
2022-09-25T02:19:38.329Z,101524.06
2022-09-25T02:22:11.829Z,101527.13
2022-09-25T02:24:47.141Z,101526.13
2022-09-25T02:27:15.732Z,101533.66
2022-09-25T02:29:43.679Z,101524.91
2022-09-25T02:32:14.392Z,101531.72
2022-09-25T02:34:43.439Z,101536.88
2022-09-25T02:37:12.694Z,101531.94
2022-09-25T02:39:42.795Z,101527.97
2022-09-25T02:42:23.314Z,101533.59
2022-09-25T02:45:07.722Z,101526.78
2022-09-25T02:47:45.750Z,101529.47
2022-09-25T02:50:21.058Z,101522.81
2022-09-25T02:52:54.326Z,101530.47
2022-09-25T02:55:32.314Z,101532.00
2022-09-25T02:58:05.628Z,101529.75
2022-09-25T03:00:36.947Z,101531.69
2022-09-25T03:03:09.932Z,101536.09
2022-09-25T03:05:39.474Z,101531.13
2022-09-25T03:08:26.066Z,101529.75
2022-09-25T03:10:58.602Z,101530.97
2022-09-25T03:13:31.890Z,101527.38
2022-09-25T03:16:02.711Z,101525.16
2022-09-25T03:18:32.312Z,101525.69
2022-09-25T03:21:00.772Z,101526.19
2022-09-25T03:23:28.689Z,101535.91
2022-09-25T03:25:57.117Z,101526.53
2022-09-25T03:28:27.234Z,101533.38
2022-09-25T03:31:00.696Z,101532.69
2022-09-25T03:33:29.394Z,101535.47
2022-09-25T03:36:08.152Z,101535.94
2022-09-25T03:38:36.316Z,101532.63
2022-09-25T03:41:06.805Z,101532.50
2022-09-25T03:43:36.670Z,101528.28
2022-09-25T03:46:05.022Z,101533.75
2022-09-25T03:48:33.594Z,101527.25
2022-09-25T03:51:01.794Z,101531.53
2022-09-25T03:53:33.450Z,101535.63
2022-09-25T03:56:02.268Z,101540.06
2022-09-25T03:58:30.546Z,101541.41
2022-09-25T04:00:58.844Z,101533.88
2022-09-25T04:03:28.545Z,101533.38
2022-09-25T04:05:57.045Z,101521.56
2022-09-25T04:08:26.904Z,101530.63
2022-09-25T04:10:59.336Z,101525.69
2022-09-25T04:13:30.048Z,101524.81
2022-09-25T04:15:58.457Z,101523.28
2022-09-25T04:18:27.378Z,101523.38
2022-09-25T04:20:55.207Z,101514.00
2022-09-25T04:23:23.039Z,101522.03
2022-09-25T04:25:51.021Z,101514.53
2022-09-25T04:28:22.279Z,101505.81
2022-09-25T04:30:50.646Z,101506.28
2022-09-25T04:33:36.614Z,101510.88
2022-09-25T04:36:05.594Z,101506.81
2022-09-25T04:38:33.702Z,101497.94
2022-09-25T04:41:02.840Z,101504.56
2022-09-25T04:43:32.526Z,101500.28
2022-09-25T04:46:03.082Z,101495.97
2022-09-25T04:48:31.544Z,101496.50
2022-09-25T04:50:59.489Z,101497.00
2022-09-25T04:53:28.348Z,101492.53
2022-09-25T04:56:01.511Z,101485.84
2022-09-25T04:58:29.672Z,101492.16
2022-09-25T05:01:02.722Z,101489.97
2022-09-25T05:03:31.048Z,101493.03
2022-09-25T05:05:59.823Z,101496.94
2022-09-25T05:08:28.316Z,101503.22
2022-09-25T05:10:56.495Z,101491.63
2022-09-25T05:13:24.601Z,101493.34
2022-09-25T05:15:52.591Z,101505.28
2022-09-25T05:18:23.531Z,101508.34
2022-09-25T05:20:53.407Z,101505.94
2022-09-25T05:23:22.032Z,101505.47
2022-09-25T05:25:53.147Z,101510.41
2022-09-25T05:28:21.126Z,101502.31
2022-09-25T05:30:49.137Z,101515.19
2022-09-25T05:33:19.125Z,101514.00
2022-09-25T05:35:49.451Z,101511.09
2022-09-25T05:38:17.526Z,101515.69
2022-09-25T05:40:45.468Z,101518.41
2022-09-25T05:43:13.527Z,101514.13
2022-09-25T05:45:42.449Z,101511.25
2022-09-25T05:48:10.432Z,101521.31
2022-09-25T05:50:38.581Z,101516.88
2022-09-25T05:53:07.787Z,101521.00
2022-09-25T05:55:36.106Z,101519.59
2022-09-25T05:58:05.550Z,101523.06
2022-09-25T06:00:33.993Z,101519.59
2022-09-25T06:03:02.421Z,101517.75
2022-09-25T06:05:30.430Z,101529.88
2022-09-25T06:07:58.378Z,101520.53
2022-09-25T06:10:27.611Z,101516.06
2022-09-25T06:12:58.860Z,101519.16
2022-09-25T06:15:27.925Z,101521.53
2022-09-25T06:17:56.292Z,101516.22
2022-09-25T06:20:24.908Z,101516.94
2022-09-25T06:22:53.766Z,101511.28
2022-09-25T06:25:22.010Z,101505.69
2022-09-25T06:27:53.432Z,101509.09
2022-09-25T06:30:22.025Z,101510.50
2022-09-25T06:32:51.065Z,101520.75
2022-09-25T06:35:19.271Z,101510.50
2022-09-25T06:37:47.093Z,101507.94
2022-09-25T06:40:15.211Z,101504.00
2022-09-25T06:42:43.015Z,101514.63
2022-09-25T06:45:12.894Z,101515.81
2022-09-25T06:47:40.799Z,101512.94
2022-09-25T06:50:09.416Z,101512.13
2022-09-25T06:52:43.244Z,101509.41
2022-09-25T06:55:11.558Z,101514.22
2022-09-25T06:57:39.615Z,101505.69
2022-09-25T07:00:08.945Z,101504.34
2022-09-25T07:02:55.671Z,101505.88
2022-09-25T07:05:23.703Z,101504.38
2022-09-25T07:07:51.557Z,101502.38
2022-09-25T07:10:19.551Z,101501.00
2022-09-25T07:12:47.963Z,101501.38
2022-09-25T07:15:16.578Z,101498.84
2022-09-25T07:17:46.312Z,101504.34
2022-09-25T07:20:15.206Z,101506.06
2022-09-25T07:22:43.676Z,101514.44
2022-09-25T07:25:12.498Z,101510.16
2022-09-25T07:27:40.630Z,101516.84
2022-09-25T07:30:10.414Z,101513.59
2022-09-25T07:32:38.356Z,101514.97
2022-09-25T07:35:08.571Z,101517.34
2022-09-25T07:37:36.808Z,101523.53
2022-09-25T07:40:05.049Z,101530.56
2022-09-25T07:42:32.955Z,101530.56
2022-09-25T07:45:00.776Z,101532.75
2022-09-25T07:47:28.732Z,101527.81
2022-09-25T07:49:56.612Z,101510.88
2022-09-25T07:52:25.909Z,101520.63
2022-09-25T07:54:53.882Z,101513.28
2022-09-25T07:57:22.186Z,101509.66
2022-09-25T07:59:50.153Z,101510.19
2022-09-25T08:02:18.306Z,101513.59
2022-09-25T08:04:46.224Z,101515.81
2022-09-25T08:07:14.113Z,101510.50
2022-09-25T08:09:43.338Z,101516.16
2022-09-25T08:12:12.893Z,101513.41
2022-09-25T08:14:41.800Z,101508.44
2022-09-25T08:17:09.730Z,101503.78
2022-09-25T08:19:37.668Z,101511.13
2022-09-25T08:22:05.618Z,101512.97
2022-09-25T08:24:33.626Z,101512.16
2022-09-25T08:27:02.956Z,101515.78
2022-09-25T08:29:31.043Z,101519.53
2022-09-25T08:31:59.067Z,101526.75
2022-09-25T08:34:42.886Z,101527.97
2022-09-25T08:37:11.228Z,101541.00
2022-09-25T08:39:39.133Z,101542.53
2022-09-25T08:42:17.759Z,101544.06
2022-09-25T08:45:16.647Z,101536.53
2022-09-25T08:47:56.539Z,101544.38
2022-09-25T08:50:26.253Z,101543.88
2022-09-25T08:53:03.258Z,101547.63
2022-09-25T08:55:48.536Z,101545.41
2022-09-25T08:58:24.628Z,101546.09
2022-09-25T09:00:55.306Z,101543.53
2022-09-25T09:03:25.770Z,101545.41
2022-09-25T09:06:00.174Z,101540.28
2022-09-25T09:08:30.727Z,101538.91
2022-09-25T09:11:02.773Z,101536.72
2022-09-25T09:13:37.078Z,101528.31
2022-09-25T09:16:10.288Z,101529.00
2022-09-25T09:18:40.162Z,101521.97
2022-09-25T09:21:15.290Z,101531.06
2022-09-25T09:23:52.465Z,101534.50
2022-09-25T09:26:25.284Z,101528.69
2022-09-25T09:29:15.839Z,101531.06
2022-09-25T09:31:57.418Z,101536.91
2022-09-25T09:35:07.107Z,101541.69
2022-09-25T09:37:49.926Z,101544.41
2022-09-25T09:40:35.556Z,101537.56
2022-09-25T09:43:13.584Z,101536.72
2022-09-25T09:45:48.654Z,101536.22
2022-09-25T09:48:25.728Z,101526.94
2022-09-25T09:50:57.829Z,101528.31
2022-09-25T09:53:34.071Z,101521.47
2022-09-25T09:56:09.238Z,101516.00
2022-09-25T09:58:48.339Z,101518.03
2022-09-25T10:01:40.330Z,101509.81
2022-09-25T10:04:12.651Z,101516.84
2022-09-25T10:06:46.914Z,101501.06
2022-09-25T10:09:16.805Z,101497.09
2022-09-25T10:11:46.677Z,101504.16
2022-09-25T10:14:21.050Z,101499.31
2022-09-25T10:16:52.192Z,101497.25
2022-09-25T10:19:23.427Z,101493.84
2022-09-25T10:21:54.807Z,101495.66
2022-09-25T10:24:52.019Z,101499.63
2022-09-25T10:27:28.809Z,101496.69
2022-09-25T10:30:15.102Z,101488.06
2022-09-25T10:32:47.713Z,101490.81
2022-09-25T10:35:17.814Z,101491.81
2022-09-25T10:37:48.680Z,101493.31
2022-09-25T10:40:27.007Z,101491.19
2022-09-25T10:43:24.014Z,101482.41
2022-09-25T10:46:06.674Z,101485.34
2022-09-25T10:48:55.549Z,101492.19
2022-09-25T10:51:23.874Z,101494.38
2022-09-25T10:53:53.838Z,101491.25
2022-09-25T10:56:27.531Z,101491.09
2022-09-25T10:58:58.891Z,101496.72
2022-09-25T11:01:35.354Z,101499.44
2022-09-25T11:04:14.065Z,101487.47
2022-09-25T11:06:46.657Z,101477.53
2022-09-25T11:09:17.348Z,101478.91
2022-09-25T11:11:47.051Z,101479.09
2022-09-25T11:14:22.977Z,101476.34
2022-09-25T11:16:54.127Z,101476.63
2022-09-25T11:19:29.616Z,101472.94
2022-09-25T11:22:07.861Z,101468.91
2022-09-25T11:24:47.154Z,101462.38
2022-09-25T11:27:19.698Z,101456.63
2022-09-25T11:29:58.448Z,101460.53
2022-09-25T11:32:35.029Z,101461.50
2022-09-25T11:35:29.802Z,101452.66
2022-09-25T11:38:09.625Z,101452.34
2022-09-25T11:41:07.376Z,101456.22
2022-09-25T11:43:46.993Z,101462.69
2022-09-25T11:46:23.481Z,101459.09
2022-09-25T11:49:01.889Z,101449.72
2022-09-25T11:52:02.226Z,101453.59
2022-09-25T11:54:39.444Z,101455.41
2022-09-25T11:57:11.685Z,101462.19
2022-09-25T12:00:00.359Z,101452.16
2022-09-25T12:02:40.895Z,101454.16
2022-09-25T12:05:25.147Z,101457.66
2022-09-25T12:08:15.504Z,101446.72
2022-09-25T12:10:55.927Z,101452.66
2022-09-25T12:13:32.181Z,101449.53
2022-09-25T12:16:12.759Z,101444.31
2022-09-25T12:18:56.741Z,101437.03
2022-09-25T12:21:34.064Z,101442.69
2022-09-25T12:24:12.332Z,101436.69
2022-09-25T12:26:48.618Z,101434.50
2022-09-25T12:29:29.133Z,101433.41
2022-09-25T12:32:05.160Z,101430.31
2022-09-25T12:34:52.548Z,101426.16
2022-09-25T12:37:38.568Z,101419.31
2022-09-25T12:40:20.667Z,101422.94
2022-09-25T12:42:55.680Z,101404.88
2022-09-25T12:45:31.154Z,101403.81
2022-09-25T12:48:12.216Z,101404.75
2022-09-25T12:50:48.912Z,101401.75
2022-09-25T12:53:26.812Z,101397.97
2022-09-25T12:56:00.961Z,101394.84
2022-09-25T12:58:48.067Z,101385.44
2022-09-25T13:01:22.846Z,101391.91
2022-09-25T13:03:59.145Z,101391.44
2022-09-25T13:06:37.890Z,101389.66
2022-09-25T13:09:18.186Z,101380.31
2022-09-25T13:11:52.589Z,101389.91
2022-09-25T13:14:31.484Z,101376.91
2022-09-25T13:17:01.199Z,101374.06
2022-09-25T13:19:32.985Z,101368.88
2022-09-25T13:22:04.288Z,101364.06
2022-09-25T13:24:40.324Z,101365.66
2022-09-25T13:27:16.504Z,101363.41
2022-09-25T13:29:45.025Z,101363.00
2022-09-25T13:32:18.960Z,101352.66
2022-09-25T13:34:47.791Z,101356.66
2022-09-25T13:37:16.845Z,101345.47
2022-09-25T13:40:06.900Z,101345.69
2022-09-25T13:42:39.704Z,101352.53
2022-09-25T13:45:36.236Z,101344.31
2022-09-25T13:48:10.773Z,101346.63
2022-09-25T13:50:40.958Z,101338.53
2022-09-25T13:53:20.539Z,101330.28
2022-09-25T13:56:30.977Z,101330.78
2022-09-25T13:59:20.031Z,101331.88
2022-09-25T14:01:51.122Z,101324.78
2022-09-25T14:04:32.450Z,101323.94
2022-09-25T14:07:14.453Z,101324.59
2022-09-25T14:09:48.668Z,101319.31
2022-09-25T14:12:30.010Z,101318.22
2022-09-25T14:15:05.851Z,101314.69
2022-09-25T14:17:33.993Z,101303.66
2022-09-25T14:20:05.705Z,101307.28
2022-09-25T14:22:44.513Z,101303.84
2022-09-25T14:25:28.178Z,101302.13
2022-09-25T14:27:56.263Z,101311.91
2022-09-25T14:30:29.244Z,101302.69
2022-09-25T14:33:19.473Z,101299.72
2022-09-25T14:35:54.990Z,101306.00
2022-09-25T14:38:45.247Z,101307.56
2022-09-25T14:41:31.102Z,101295.50
2022-09-25T14:44:17.776Z,101297.53
2022-09-25T14:46:51.199Z,101295.47
2022-09-25T14:49:25.445Z,101291.69
2022-09-25T14:51:56.353Z,101294.88
2022-09-25T14:54:29.991Z,101287.66
2022-09-25T14:56:59.477Z,101282.38
2022-09-25T14:59:32.997Z,101285.34
2022-09-25T15:02:03.090Z,101282.84
2022-09-25T15:04:33.370Z,101280.66
2022-09-25T15:07:06.013Z,101276.22
2022-09-25T15:09:38.647Z,101273.91
2022-09-25T15:12:19.162Z,101266.75
2022-09-25T15:15:07.570Z,101264.84
2022-09-25T15:17:45.100Z,101258.25
2022-09-25T15:20:16.507Z,101268.00
2022-09-25T15:22:48.355Z,101260.56
2022-09-25T15:25:25.612Z,101255.72
2022-09-25T15:27:53.870Z,101258.91
2022-09-25T15:30:22.779Z,101259.94
2022-09-25T15:32:59.778Z,101259.69
2022-09-25T15:35:29.038Z,101255.88
2022-09-25T15:38:07.081Z,101260.97
2022-09-25T15:40:35.021Z,101246.72
2022-09-25T15:43:02.981Z,101257.69
2022-09-25T15:45:46.835Z,101252.09
2022-09-25T15:48:22.824Z,101246.09
2022-09-25T15:50:51.817Z,101248.38
2022-09-25T15:53:24.870Z,101244.09
2022-09-25T15:56:08.188Z,101246.16
2022-09-25T15:58:45.489Z,101245.09
2022-09-25T16:01:33.544Z,101241.44
2022-09-25T16:04:24.053Z,101247.09
2022-09-25T16:06:52.016Z,101249.81
2022-09-25T16:09:31.780Z,101242.34
2022-09-25T16:12:28.871Z,101244.94
2022-09-25T16:14:58.038Z,101242.31
2022-09-25T16:17:33.172Z,101243.34
2022-09-25T16:20:05.880Z,101233.78
2022-09-25T16:22:40.694Z,101234.63
2022-09-25T16:25:24.725Z,101240.75
2022-09-25T16:27:54.077Z,101230.78
2022-09-25T16:30:24.340Z,101234.38
2022-09-25T16:32:55.151Z,101235.00
2022-09-25T16:36:04.470Z,101238.97
2022-09-25T16:38:29.500Z,101242.31
2022-09-25T16:41:05.671Z,101239.13
2022-09-25T16:43:36.141Z,101237.09
2022-09-25T16:46:13.484Z,101229.53
2022-09-25T16:48:42.548Z,101232.66
2022-09-25T16:51:15.025Z,101224.59
2022-09-25T16:53:42.905Z,101226.50
2022-09-25T16:56:10.959Z,101223.75
2022-09-25T16:58:38.939Z,101218.47
2022-09-25T17:01:06.840Z,101211.44
2022-09-25T17:03:49.766Z,101208.44
2022-09-25T17:06:19.864Z,101202.06
2022-09-25T17:08:48.087Z,101191.94
2022-09-25T17:11:17.706Z,101193.19
2022-09-25T17:13:47.108Z,101187.22
2022-09-25T17:16:15.254Z,101180.66
2022-09-25T17:18:43.280Z,101178.13
2022-09-25T17:21:14.486Z,101173.31
2022-09-25T17:23:44.784Z,101174.63
2022-09-25T17:26:17.916Z,101173.78
2022-09-25T17:28:45.871Z,101170.00
2022-09-25T17:31:15.604Z,101172.28
2022-09-25T17:33:43.493Z,101172.97
2022-09-25T17:36:13.472Z,101171.88
2022-09-25T17:38:43.031Z,101171.03
2022-09-25T17:41:18.194Z,101176.75
2022-09-25T17:43:46.141Z,101172.97
2022-09-25T17:46:16.170Z,101166.31
2022-09-25T17:48:44.124Z,101173.09
2022-09-25T17:51:15.996Z,101176.41
2022-09-25T17:53:46.090Z,101175.44
2022-09-25T17:56:14.343Z,101174.84
2022-09-25T17:58:44.274Z,101164.84
2022-09-25T18:01:15.469Z,101162.66
2022-09-25T18:03:43.575Z,101158.13
2022-09-25T18:06:11.397Z,101154.84
2022-09-25T18:08:39.216Z,101152.88
2022-09-25T18:11:12.183Z,101157.94
2022-09-25T18:13:41.779Z,101160.59
2022-09-25T18:16:16.502Z,101156.78
2022-09-25T18:19:02.339Z,101147.91
2022-09-25T18:21:48.468Z,101141.25
2022-09-25T18:24:16.620Z,101141.06
2022-09-25T18:26:46.741Z,101134.34
2022-09-25T18:29:16.808Z,101138.06
2022-09-25T18:31:45.222Z,101126.78
2022-09-25T18:34:13.471Z,101119.88
2022-09-25T18:36:41.655Z,101112.84
2022-09-25T18:39:10.074Z,101107.47
2022-09-25T18:41:38.357Z,101114.66
2022-09-25T18:44:08.046Z,101107.66
2022-09-25T18:46:37.418Z,101103.50
2022-09-25T18:49:05.973Z,101110.50
2022-09-25T18:51:34.502Z,101107.38
2022-09-25T18:54:03.887Z,101103.97
2022-09-25T18:56:34.576Z,101099.13
2022-09-25T18:59:22.436Z,101092.34
2022-09-25T19:05:54.165Z,101086.47
2022-09-25T19:08:25.098Z,101082.97
2022-09-25T19:10:58.757Z,101083.81
2022-09-25T19:13:28.002Z,101078.59
2022-09-25T19:15:59.001Z,101077.56
2022-09-25T19:18:28.690Z,101075.50
2022-09-25T19:20:58.491Z,101074.72
2022-09-25T19:23:31.803Z,101070.09
2022-09-25T19:26:03.634Z,101068.44
2022-09-25T19:28:37.647Z,101067.19
2022-09-25T19:31:08.691Z,101068.78
2022-09-25T19:33:38.522Z,101068.00
2022-09-25T19:36:08.725Z,101058.00
2022-09-25T19:38:40.427Z,101059.22
2022-09-25T19:41:15.196Z,101056.97
2022-09-25T19:43:45.032Z,101055.94
2022-09-25T19:46:14.950Z,101054.03
2022-09-25T19:48:43.711Z,101055.16
2022-09-25T19:51:12.845Z,101054.41
2022-09-25T19:53:43.747Z,101062.03
2022-09-25T19:56:12.447Z,101055.41
2022-09-25T19:58:42.930Z,101044.53
2022-09-25T20:01:13.265Z,101041.31
2022-09-25T20:03:42.228Z,101032.53
2022-09-25T20:06:13.360Z,101037.34
2022-09-25T20:08:45.061Z,101036.97
2022-09-25T20:11:16.870Z,101032.44
2022-09-25T20:13:47.695Z,101018.56
2022-09-25T20:16:18.956Z,101017.63
2022-09-25T20:18:49.259Z,101004.88
2022-09-25T20:25:28.021Z,101016.88
2022-09-25T20:27:58.080Z,101015.13
2022-09-25T20:30:30.098Z,101006.47
2022-09-25T20:32:59.182Z,101006.91
2022-09-25T20:35:27.135Z,101009.31
2022-09-25T20:37:55.196Z,101011.31
2022-09-25T20:40:25.541Z,101014.31
2022-09-25T20:42:53.906Z,101020.28
2022-09-25T20:45:21.975Z,101015.56
2022-09-25T20:47:51.020Z,101014.84
2022-09-25T20:50:19.329Z,101020.13
2022-09-25T20:52:48.170Z,101006.53
2022-09-25T20:55:19.701Z,101003.59
2022-09-25T20:57:49.089Z,100998.91
2022-09-25T21:00:19.594Z,100987.03
2022-09-25T21:02:48.444Z,100990.84
2022-09-25T21:05:17.562Z,100987.78
2022-09-25T21:07:45.881Z,100981.38
2022-09-25T21:10:16.164Z,100983.81
2022-09-25T21:12:47.635Z,100980.84
2022-09-25T21:15:19.218Z,100971.50
2022-09-25T21:17:47.499Z,100979.41
2022-09-25T21:20:16.457Z,100978.44
2022-09-25T21:22:48.341Z,100972.97
2022-09-25T21:25:17.060Z,100970.22
2022-09-25T21:27:45.408Z,100962.00
2022-09-25T21:30:14.514Z,100960.22
2022-09-25T21:32:45.239Z,100949.06
2022-09-25T21:35:13.891Z,100947.88
2022-09-25T21:37:42.953Z,100944.06
2022-09-25T21:40:11.046Z,100939.66
2022-09-25T21:42:42.621Z,100937.78
2022-09-25T21:45:12.069Z,100929.41
2022-09-25T21:47:40.091Z,100928.34
2022-09-25T21:50:10.431Z,100921.56
2022-09-25T21:52:42.075Z,100913.16
2022-09-25T21:55:11.148Z,100905.34
2022-09-25T21:57:39.141Z,100902.09
2022-09-25T22:00:08.214Z,100904.53
2022-09-25T22:02:36.984Z,100899.88
2022-09-25T22:05:05.750Z,100896.94
2022-09-25T22:07:35.104Z,100898.47
2022-09-25T22:10:03.055Z,100896.38
2022-09-25T22:12:32.018Z,100888.59
2022-09-25T22:15:00.563Z,100878.47
2022-09-25T22:17:28.637Z,100876.25
2022-09-25T22:19:56.721Z,100877.34
2022-09-25T22:22:24.809Z,100867.03
2022-09-25T22:24:54.839Z,100868.53
2022-09-25T22:27:23.058Z,100871.91
2022-09-25T22:29:50.971Z,100849.91
2022-09-25T22:32:19.606Z,100856.13
2022-09-25T22:34:47.854Z,100845.63
2022-09-25T22:37:18.547Z,100850.88
2022-09-25T22:39:47.828Z,100842.19
2022-09-25T22:42:17.151Z,100845.78
2022-09-25T22:44:46.368Z,100838.53
2022-09-25T22:47:15.342Z,100822.53
2022-09-25T22:49:43.722Z,100815.94
2022-09-25T22:52:13.678Z,100814.13
2022-09-25T22:54:42.593Z,100797.13
2022-09-25T22:57:10.605Z,100791.97
2022-09-25T22:59:39.906Z,100783.66
2022-09-25T23:02:07.988Z,100776.03
2022-09-25T23:04:36.291Z,100785.00
2022-09-25T23:07:04.778Z,100773.22
2022-09-25T23:09:33.353Z,100766.91
2022-09-25T23:12:01.785Z,100760.00
2022-09-25T23:14:32.478Z,100763.69
2022-09-25T23:17:02.233Z,100755.16
2022-09-25T23:19:30.865Z,100760.56
2022-09-25T23:21:59.545Z,100754.44
2022-09-25T23:24:29.709Z,100743.19
2022-09-25T23:26:58.461Z,100736.91
2022-09-25T23:29:26.521Z,100735.56
2022-09-25T23:31:54.930Z,100733.75
2022-09-25T23:34:24.762Z,100732.56
2022-09-25T23:36:52.633Z,100729.75
2022-09-25T23:39:21.527Z,100723.78
2022-09-25T23:41:50.580Z,100721.31
2022-09-25T23:44:18.800Z,100708.78
2022-09-25T23:46:46.851Z,100708.19
2022-09-25T23:49:18.056Z,100713.19
2022-09-25T23:51:48.158Z,100710.59
2022-09-25T23:54:18.331Z,100707.53
2022-09-25T23:56:47.252Z,100696.59
2022-09-25T23:59:16.099Z,100687.31
